sensor_id;sensor_type;location;lat;lon;timestamp;temperature;humidity
43561;DHT22;32305;46.410;17.394;2023-09-19T00:02:21;25.10;59.20
43561;DHT22;32305;46.410;17.394;2023-09-19T00:04:48;25.10;59.20
43561;DHT22;32305;46.410;17.394;2023-09-19T00:07:17;25.10;59.10
43561;DHT22;32305;46.410;17.394;2023-09-19T00:09:44;25.10;59.10
43561;DHT22;32305;46.410;17.394;2023-09-19T00:12:11;25.10;59.00
43561;DHT22;32305;46.410;17.394;2023-09-19T00:14:40;25.10;59.00
43561;DHT22;32305;46.410;17.394;2023-09-19T00:17:07;25.10;59.00
43561;DHT22;32305;46.410;17.394;2023-09-19T00:19:36;25.10;59.00
43561;DHT22;32305;46.410;17.394;2023-09-19T00:22:04;25.10;59.00
43561;DHT22;32305;46.410;17.394;2023-09-19T00:24:31;25.10;58.90
43561;DHT22;32305;46.410;17.394;2023-09-19T00:26:58;25.10;58.90
43561;DHT22;32305;46.410;17.394;2023-09-19T00:29:26;25.10;58.90
43561;DHT22;32305;46.410;17.394;2023-09-19T00:31:55;25.10;58.90
43561;DHT22;32305;46.410;17.394;2023-09-19T00:34:24;25.10;58.90
43561;DHT22;32305;46.410;17.394;2023-09-19T00:36:51;25.10;58.90
43561;DHT22;32305;46.410;17.394;2023-09-19T00:39:19;25.10;58.90
43561;DHT22;32305;46.410;17.394;2023-09-19T00:41:47;25.10;59.00
43561;DHT22;32305;46.410;17.394;2023-09-19T00:44:15;25.10;58.90
43561;DHT22;32305;46.410;17.394;2023-09-19T00:46:42;25.10;58.90
43561;DHT22;32305;46.410;17.394;2023-09-19T00:49:10;25.10;58.90
43561;DHT22;32305;46.410;17.394;2023-09-19T00:51:38;25.10;58.90
43561;DHT22;32305;46.410;17.394;2023-09-19T00:54:08;25.10;58.90
43561;DHT22;32305;46.410;17.394;2023-09-19T00:56:35;25.10;58.90
43561;DHT22;32305;46.410;17.394;2023-09-19T00:59:04;25.10;58.90
43561;DHT22;32305;46.410;17.394;2023-09-19T01:01:31;25.10;58.90
43561;DHT22;32305;46.410;17.394;2023-09-19T01:03:59;25.10;58.90
43561;DHT22;32305;46.410;17.394;2023-09-19T01:06:27;25.10;58.90
43561;DHT22;32305;46.410;17.394;2023-09-19T01:08:54;25.10;58.90
43561;DHT22;32305;46.410;17.394;2023-09-19T01:11:32;25.10;58.90
43561;DHT22;32305;46.410;17.394;2023-09-19T01:16:52;25.10;58.80
43561;DHT22;32305;46.410;17.394;2023-09-19T01:19:25;25.10;58.80
43561;DHT22;32305;46.410;17.394;2023-09-19T01:21:57;25.10;58.80
43561;DHT22;32305;46.410;17.394;2023-09-19T01:24:44;25.10;58.80
43561;DHT22;32305;46.410;17.394;2023-09-19T01:27:25;25.10;58.80
43561;DHT22;32305;46.410;17.394;2023-09-19T01:30:09;25.10;58.70
43561;DHT22;32305;46.410;17.394;2023-09-19T01:32:38;25.10;58.70
43561;DHT22;32305;46.410;17.394;2023-09-19T01:35:05;25.10;58.70
43561;DHT22;32305;46.410;17.394;2023-09-19T01:37:33;25.10;58.70
43561;DHT22;32305;46.410;17.394;2023-09-19T01:40:02;25.10;58.60
43561;DHT22;32305;46.410;17.394;2023-09-19T01:42:49;25.10;58.60
43561;DHT22;32305;46.410;17.394;2023-09-19T01:48:30;25.10;58.70
43561;DHT22;32305;46.410;17.394;2023-09-19T01:51:01;25.10;58.70
43561;DHT22;32305;46.410;17.394;2023-09-19T01:53:43;25.10;58.70
43561;DHT22;32305;46.410;17.394;2023-09-19T01:56:12;25.10;58.70
43561;DHT22;32305;46.410;17.394;2023-09-19T01:58:45;25.10;58.70
43561;DHT22;32305;46.410;17.394;2023-09-19T02:01:15;25.10;58.60
43561;DHT22;32305;46.410;17.394;2023-09-19T02:03:44;25.10;58.60
43561;DHT22;32305;46.410;17.394;2023-09-19T02:06:14;25.10;58.60
43561;DHT22;32305;46.410;17.394;2023-09-19T02:08:42;25.10;58.60
43561;DHT22;32305;46.410;17.394;2023-09-19T02:11:09;25.10;58.60
43561;DHT22;32305;46.410;17.394;2023-09-19T02:13:36;25.10;58.70
43561;DHT22;32305;46.410;17.394;2023-09-19T02:16:05;25.10;58.70
43561;DHT22;32305;46.410;17.394;2023-09-19T02:18:33;25.10;58.70
43561;DHT22;32305;46.410;17.394;2023-09-19T02:21:02;25.10;58.60
43561;DHT22;32305;46.410;17.394;2023-09-19T02:23:30;25.10;58.70
43561;DHT22;32305;46.410;17.394;2023-09-19T02:25:57;25.10;58.90
43561;DHT22;32305;46.410;17.394;2023-09-19T02:28:24;25.10;58.70
43561;DHT22;32305;46.410;17.394;2023-09-19T02:30:56;25.00;58.60
43561;DHT22;32305;46.410;17.394;2023-09-19T02:33:23;25.10;58.60
43561;DHT22;32305;46.410;17.394;2023-09-19T02:35:54;25.10;58.60
43561;DHT22;32305;46.410;17.394;2023-09-19T02:38:21;25.10;58.80
43561;DHT22;32305;46.410;17.394;2023-09-19T02:40:52;25.10;58.60
43561;DHT22;32305;46.410;17.394;2023-09-19T02:43:19;25.10;58.60
43561;DHT22;32305;46.410;17.394;2023-09-19T02:45:46;25.10;58.60
43561;DHT22;32305;46.410;17.394;2023-09-19T02:48:14;25.10;58.50
43561;DHT22;32305;46.410;17.394;2023-09-19T02:50:42;25.10;58.50
43561;DHT22;32305;46.410;17.394;2023-09-19T02:53:10;25.10;58.50
43561;DHT22;32305;46.410;17.394;2023-09-19T02:55:40;25.10;58.50
43561;DHT22;32305;46.410;17.394;2023-09-19T02:58:07;25.10;58.50
43561;DHT22;32305;46.410;17.394;2023-09-19T03:00:41;25.10;58.50
43561;DHT22;32305;46.410;17.394;2023-09-19T03:03:15;25.10;58.50
43561;DHT22;32305;46.410;17.394;2023-09-19T03:05:44;25.10;58.50
43561;DHT22;32305;46.410;17.394;2023-09-19T03:08:16;25.10;58.50
43561;DHT22;32305;46.410;17.394;2023-09-19T03:10:46;25.10;58.50
43561;DHT22;32305;46.410;17.394;2023-09-19T03:13:14;25.10;58.50
43561;DHT22;32305;46.410;17.394;2023-09-19T03:15:42;25.10;58.50
43561;DHT22;32305;46.410;17.394;2023-09-19T03:18:13;25.00;58.50
43561;DHT22;32305;46.410;17.394;2023-09-19T03:20:40;25.10;58.50
43561;DHT22;32305;46.410;17.394;2023-09-19T03:23:07;25.10;58.50
43561;DHT22;32305;46.410;17.394;2023-09-19T03:25:35;25.00;58.50
43561;DHT22;32305;46.410;17.394;2023-09-19T03:28:03;25.00;58.50
43561;DHT22;32305;46.410;17.394;2023-09-19T03:30:32;25.00;58.50
43561;DHT22;32305;46.410;17.394;2023-09-19T03:33:00;25.00;58.50
43561;DHT22;32305;46.410;17.394;2023-09-19T03:35:27;25.00;58.50
43561;DHT22;32305;46.410;17.394;2023-09-19T03:37:54;25.00;58.50
43561;DHT22;32305;46.410;17.394;2023-09-19T03:40:21;25.00;58.50
43561;DHT22;32305;46.410;17.394;2023-09-19T03:42:50;25.00;58.50
43561;DHT22;32305;46.410;17.394;2023-09-19T03:45:17;25.00;58.50
43561;DHT22;32305;46.410;17.394;2023-09-19T03:47:45;25.00;58.50
43561;DHT22;32305;46.410;17.394;2023-09-19T03:50:15;25.00;58.50
43561;DHT22;32305;46.410;17.394;2023-09-19T03:52:44;25.00;58.50
43561;DHT22;32305;46.410;17.394;2023-09-19T03:55:11;25.00;58.50
43561;DHT22;32305;46.410;17.394;2023-09-19T03:57:39;25.00;58.50
43561;DHT22;32305;46.410;17.394;2023-09-19T04:00:06;25.00;58.40
43561;DHT22;32305;46.410;17.394;2023-09-19T04:02:39;25.00;58.40
43561;DHT22;32305;46.410;17.394;2023-09-19T04:05:06;25.00;58.40
43561;DHT22;32305;46.410;17.394;2023-09-19T04:07:33;25.00;58.40
43561;DHT22;32305;46.410;17.394;2023-09-19T04:10:02;25.00;58.40
43561;DHT22;32305;46.410;17.394;2023-09-19T04:12:30;25.00;58.40
43561;DHT22;32305;46.410;17.394;2023-09-19T04:14:57;25.00;58.30
43561;DHT22;32305;46.410;17.394;2023-09-19T04:17:24;25.00;58.30
43561;DHT22;32305;46.410;17.394;2023-09-19T04:19:51;25.00;58.30
43561;DHT22;32305;46.410;17.394;2023-09-19T04:22:18;25.00;58.30
43561;DHT22;32305;46.410;17.394;2023-09-19T04:24:45;25.00;58.30
43561;DHT22;32305;46.410;17.394;2023-09-19T04:27:12;25.00;58.30
43561;DHT22;32305;46.410;17.394;2023-09-19T04:29:41;25.00;58.30
43561;DHT22;32305;46.410;17.394;2023-09-19T04:32:08;25.00;58.40
43561;DHT22;32305;46.410;17.394;2023-09-19T04:34:37;25.00;58.40
43561;DHT22;32305;46.410;17.394;2023-09-19T04:37:07;25.00;58.40
43561;DHT22;32305;46.410;17.394;2023-09-19T04:39:34;24.90;58.50
43561;DHT22;32305;46.410;17.394;2023-09-19T04:42:01;24.80;58.40
43561;DHT22;32305;46.410;17.394;2023-09-19T04:44:28;24.70;58.60
43561;DHT22;32305;46.410;17.394;2023-09-19T04:46:55;24.60;58.10
43561;DHT22;32305;46.410;17.394;2023-09-19T04:49:22;24.30;56.70
43561;DHT22;32305;46.410;17.394;2023-09-19T04:51:49;24.00;55.00
43561;DHT22;32305;46.410;17.394;2023-09-19T04:54:16;23.70;54.20
43561;DHT22;32305;46.410;17.394;2023-09-19T04:56:45;23.40;53.30
43561;DHT22;32305;46.410;17.394;2023-09-19T04:59:12;23.10;53.10
43561;DHT22;32305;46.410;17.394;2023-09-19T05:01:41;22.80;52.90
43561;DHT22;32305;46.410;17.394;2023-09-19T05:04:08;22.50;53.40
43561;DHT22;32305;46.410;17.394;2023-09-19T05:06:35;22.30;53.00
43561;DHT22;32305;46.410;17.394;2023-09-19T05:09:02;21.90;54.30
43561;DHT22;32305;46.410;17.394;2023-09-19T05:11:33;21.70;53.30
43561;DHT22;32305;46.410;17.394;2023-09-19T05:14:00;21.40;53.90
43561;DHT22;32305;46.410;17.394;2023-09-19T05:16:30;21.20;53.50
43561;DHT22;32305;46.410;17.394;2023-09-19T05:19:01;20.90;55.10
43561;DHT22;32305;46.410;17.394;2023-09-19T05:21:28;20.70;51.80
43561;DHT22;32305;46.410;17.394;2023-09-19T05:23:56;20.50;53.10
43561;DHT22;32305;46.410;17.394;2023-09-19T05:26:23;20.40;55.30
43561;DHT22;32305;46.410;17.394;2023-09-19T05:28:50;20.20;55.80
43561;DHT22;32305;46.410;17.394;2023-09-19T05:31:17;20.20;55.40
43561;DHT22;32305;46.410;17.394;2023-09-19T05:33:45;20.00;55.80
43561;DHT22;32305;46.410;17.394;2023-09-19T05:36:12;20.00;55.20
43561;DHT22;32305;46.410;17.394;2023-09-19T05:38:39;19.90;55.20
43561;DHT22;32305;46.410;17.394;2023-09-19T05:41:08;19.90;54.90
43561;DHT22;32305;46.410;17.394;2023-09-19T05:43:36;19.80;55.10
43561;DHT22;32305;46.410;17.394;2023-09-19T05:46:04;19.80;54.70
43561;DHT22;32305;46.410;17.394;2023-09-19T05:48:32;19.80;56.40
43561;DHT22;32305;46.410;17.394;2023-09-19T05:50:59;19.80;54.70
43561;DHT22;32305;46.410;17.394;2023-09-19T05:53:28;19.80;57.00
43561;DHT22;32305;46.410;17.394;2023-09-19T05:55:55;19.70;55.10
43561;DHT22;32305;46.410;17.394;2023-09-19T05:58:23;19.70;57.90
43561;DHT22;32305;46.410;17.394;2023-09-19T06:00:50;19.70;56.90
43561;DHT22;32305;46.410;17.394;2023-09-19T06:03:17;19.60;58.20
43561;DHT22;32305;46.410;17.394;2023-09-19T06:05:46;19.60;55.40
43561;DHT22;32305;46.410;17.394;2023-09-19T06:08:16;19.50;55.50
43561;DHT22;32305;46.410;17.394;2023-09-19T06:10:43;19.50;56.80
43561;DHT22;32305;46.410;17.394;2023-09-19T06:13:10;19.40;54.80
43561;DHT22;32305;46.410;17.394;2023-09-19T06:15:37;19.30;54.30
43561;DHT22;32305;46.410;17.394;2023-09-19T06:18:09;19.20;54.50
43561;DHT22;32305;46.410;17.394;2023-09-19T06:20:40;19.20;55.20
43561;DHT22;32305;46.410;17.394;2023-09-19T06:23:11;19.20;54.60
43561;DHT22;32305;46.410;17.394;2023-09-19T06:25:38;19.10;54.30
43561;DHT22;32305;46.410;17.394;2023-09-19T06:28:06;19.00;54.00
43561;DHT22;32305;46.410;17.394;2023-09-19T06:30:35;19.10;54.50
43561;DHT22;32305;46.410;17.394;2023-09-19T06:33:02;19.10;55.00
43561;DHT22;32305;46.410;17.394;2023-09-19T06:35:31;19.00;54.00
43561;DHT22;32305;46.410;17.394;2023-09-19T06:38:03;19.00;54.30
43561;DHT22;32305;46.410;17.394;2023-09-19T06:40:30;19.00;54.50
43561;DHT22;32305;46.410;17.394;2023-09-19T06:42:58;18.90;54.30
43561;DHT22;32305;46.410;17.394;2023-09-19T06:45:29;18.90;54.70
43561;DHT22;32305;46.410;17.394;2023-09-19T06:47:56;18.90;54.90
43561;DHT22;32305;46.410;17.394;2023-09-19T06:50:25;18.90;54.30
43561;DHT22;32305;46.410;17.394;2023-09-19T06:52:54;18.90;54.10
43561;DHT22;32305;46.410;17.394;2023-09-19T06:55:24;18.80;55.00
43561;DHT22;32305;46.410;17.394;2023-09-19T06:57:55;18.80;55.10
43561;DHT22;32305;46.410;17.394;2023-09-19T07:00:23;18.80;54.70
43561;DHT22;32305;46.410;17.394;2023-09-19T07:03:01;18.80;54.80
43561;DHT22;32305;46.410;17.394;2023-09-19T07:05:31;18.80;55.00
43561;DHT22;32305;46.410;17.394;2023-09-19T07:07:58;18.80;54.80
43561;DHT22;32305;46.410;17.394;2023-09-19T07:10:26;18.80;54.30
43561;DHT22;32305;46.410;17.394;2023-09-19T07:12:56;18.80;54.90
43561;DHT22;32305;46.410;17.394;2023-09-19T07:15:25;18.80;56.60
43561;DHT22;32305;46.410;17.394;2023-09-19T07:17:52;18.80;55.30
43561;DHT22;32305;46.410;17.394;2023-09-19T07:20:24;18.80;56.40
43561;DHT22;32305;46.410;17.394;2023-09-19T07:22:56;18.70;56.00
43561;DHT22;32305;46.410;17.394;2023-09-19T07:25:29;18.80;54.50
43561;DHT22;32305;46.410;17.394;2023-09-19T07:27:58;18.80;56.20
43561;DHT22;32305;46.410;17.394;2023-09-19T07:30:28;18.80;57.30
43561;DHT22;32305;46.410;17.394;2023-09-19T07:32:56;18.80;55.20
43561;DHT22;32305;46.410;17.394;2023-09-19T07:35:23;18.80;58.00
43561;DHT22;32305;46.410;17.394;2023-09-19T07:37:50;18.80;56.10
43561;DHT22;32305;46.410;17.394;2023-09-19T07:40:19;18.80;55.50
43561;DHT22;32305;46.410;17.394;2023-09-19T07:42:48;18.80;54.10
43561;DHT22;32305;46.410;17.394;2023-09-19T07:45:16;18.80;55.20
43561;DHT22;32305;46.410;17.394;2023-09-19T07:47:47;18.80;57.60
43561;DHT22;32305;46.410;17.394;2023-09-19T07:50:15;18.70;54.60
43561;DHT22;32305;46.410;17.394;2023-09-19T07:52:47;18.70;57.20
43561;DHT22;32305;46.410;17.394;2023-09-19T07:55:14;18.70;55.50
43561;DHT22;32305;46.410;17.394;2023-09-19T07:57:46;18.70;55.30
43561;DHT22;32305;46.410;17.394;2023-09-19T08:00:14;18.70;54.20
43561;DHT22;32305;46.410;17.394;2023-09-19T08:02:41;18.70;55.90
43561;DHT22;32305;46.410;17.394;2023-09-19T08:05:09;18.70;57.50
43561;DHT22;32305;46.410;17.394;2023-09-19T08:07:37;18.70;53.80
43561;DHT22;32305;46.410;17.394;2023-09-19T08:10:05;18.70;53.90
43561;DHT22;32305;46.410;17.394;2023-09-19T08:12:34;18.80;56.00
43561;DHT22;32305;46.410;17.394;2023-09-19T08:15:02;18.80;56.30
43561;DHT22;32305;46.410;17.394;2023-09-19T08:17:34;18.80;54.90
43561;DHT22;32305;46.410;17.394;2023-09-19T08:20:01;18.80;55.10
43561;DHT22;32305;46.410;17.394;2023-09-19T08:22:30;18.80;56.00
43561;DHT22;32305;46.410;17.394;2023-09-19T08:24:58;18.80;53.80
43561;DHT22;32305;46.410;17.394;2023-09-19T08:27:25;18.80;55.40
43561;DHT22;32305;46.410;17.394;2023-09-19T08:29:53;18.80;54.70
43561;DHT22;32305;46.410;17.394;2023-09-19T08:32:22;18.80;54.40
43561;DHT22;32305;46.410;17.394;2023-09-19T08:34:51;18.80;56.10
43561;DHT22;32305;46.410;17.394;2023-09-19T08:37:18;18.80;55.20
43561;DHT22;32305;46.410;17.394;2023-09-19T08:39:47;18.80;55.50
43561;DHT22;32305;46.410;17.394;2023-09-19T08:42:14;18.80;56.10
43561;DHT22;32305;46.410;17.394;2023-09-19T08:44:43;18.80;54.90
43561;DHT22;32305;46.410;17.394;2023-09-19T08:47:10;18.80;54.80
43561;DHT22;32305;46.410;17.394;2023-09-19T08:50:01;18.80;55.00
43561;DHT22;32305;46.410;17.394;2023-09-19T08:52:32;18.80;55.70
43561;DHT22;32305;46.410;17.394;2023-09-19T08:55:03;18.80;56.20
43561;DHT22;32305;46.410;17.394;2023-09-19T08:57:36;18.80;53.90
43561;DHT22;32305;46.410;17.394;2023-09-19T09:00:08;18.80;55.70
43561;DHT22;32305;46.410;17.394;2023-09-19T09:02:41;18.90;56.30
43561;DHT22;32305;46.410;17.394;2023-09-19T09:05:10;18.90;57.00
43561;DHT22;32305;46.410;17.394;2023-09-19T09:07:37;18.90;56.50
43561;DHT22;32305;46.410;17.394;2023-09-19T09:10:05;18.90;56.90
43561;DHT22;32305;46.410;17.394;2023-09-19T09:12:34;18.90;56.00
43561;DHT22;32305;46.410;17.394;2023-09-19T09:15:03;18.90;58.10
43561;DHT22;32305;46.410;17.394;2023-09-19T09:17:30;18.90;57.00
43561;DHT22;32305;46.410;17.394;2023-09-19T09:19:58;18.90;55.30
43561;DHT22;32305;46.410;17.394;2023-09-19T09:22:26;18.90;56.10
43561;DHT22;32305;46.410;17.394;2023-09-19T09:24:53;18.90;57.00
43561;DHT22;32305;46.410;17.394;2023-09-19T09:27:21;18.90;55.80
43561;DHT22;32305;46.410;17.394;2023-09-19T09:29:51;18.90;57.00
43561;DHT22;32305;46.410;17.394;2023-09-19T09:32:26;18.90;57.40
43561;DHT22;32305;46.410;17.394;2023-09-19T09:34:54;19.00;57.20
43561;DHT22;32305;46.410;17.394;2023-09-19T09:37:26;19.00;57.30
43561;DHT22;32305;46.410;17.394;2023-09-19T09:39:58;19.00;54.60
43561;DHT22;32305;46.410;17.394;2023-09-19T09:42:45;19.00;57.40
43561;DHT22;32305;46.410;17.394;2023-09-19T09:45:21;19.00;55.00
43561;DHT22;32305;46.410;17.394;2023-09-19T09:48:04;19.10;55.60
43561;DHT22;32305;46.410;17.394;2023-09-19T09:50:48;19.10;58.30
43561;DHT22;32305;46.410;17.394;2023-09-19T09:53:30;19.10;56.90
43561;DHT22;32305;46.410;17.394;2023-09-19T09:56:04;19.20;54.90
43561;DHT22;32305;46.410;17.394;2023-09-19T09:58:37;19.20;55.90
43561;DHT22;32305;46.410;17.394;2023-09-19T10:01:07;19.20;58.40
43561;DHT22;32305;46.410;17.394;2023-09-19T10:03:42;19.20;54.60
43561;DHT22;32305;46.410;17.394;2023-09-19T10:06:17;19.30;56.20
43561;DHT22;32305;46.410;17.394;2023-09-19T10:09:03;19.30;56.00
43561;DHT22;32305;46.410;17.394;2023-09-19T10:11:42;19.30;57.20
43561;DHT22;32305;46.410;17.394;2023-09-19T10:14:11;19.30;55.40
43561;DHT22;32305;46.410;17.394;2023-09-19T10:16:40;19.30;55.70
43561;DHT22;32305;46.410;17.394;2023-09-19T10:19:07;19.30;56.80
43561;DHT22;32305;46.410;17.394;2023-09-19T10:21:36;19.30;54.40
43561;DHT22;32305;46.410;17.394;2023-09-19T10:24:03;19.30;58.00
43561;DHT22;32305;46.410;17.394;2023-09-19T10:26:35;19.30;57.60
43561;DHT22;32305;46.410;17.394;2023-09-19T10:29:03;19.30;57.50
43561;DHT22;32305;46.410;17.394;2023-09-19T10:31:34;19.30;56.90
43561;DHT22;32305;46.410;17.394;2023-09-19T10:34:03;19.40;57.20
43561;DHT22;32305;46.410;17.394;2023-09-19T10:36:32;19.30;56.20
43561;DHT22;32305;46.410;17.394;2023-09-19T10:39:01;19.30;55.60
43561;DHT22;32305;46.410;17.394;2023-09-19T10:41:31;19.30;56.60
43561;DHT22;32305;46.410;17.394;2023-09-19T10:44:02;19.30;57.90
43561;DHT22;32305;46.410;17.394;2023-09-19T10:46:30;19.30;57.00
43561;DHT22;32305;46.410;17.394;2023-09-19T10:48:59;19.30;59.30
43561;DHT22;32305;46.410;17.394;2023-09-19T10:51:29;19.30;57.80
43561;DHT22;32305;46.410;17.394;2023-09-19T10:54:02;19.30;56.30
43561;DHT22;32305;46.410;17.394;2023-09-19T10:56:39;19.30;59.00
43561;DHT22;32305;46.410;17.394;2023-09-19T10:59:09;19.30;57.90
43561;DHT22;32305;46.410;17.394;2023-09-19T11:04:35;19.20;59.60
43561;DHT22;32305;46.410;17.394;2023-09-19T11:07:06;19.20;59.00
43561;DHT22;32305;46.410;17.394;2023-09-19T11:09:45;19.20;59.10
43561;DHT22;32305;46.410;17.394;2023-09-19T11:15:10;19.20;57.90
43561;DHT22;32305;46.410;17.394;2023-09-19T11:17:39;19.20;58.60
43561;DHT22;32305;46.410;17.394;2023-09-19T11:20:16;19.20;57.10
43561;DHT22;32305;46.410;17.394;2023-09-19T11:25:42;19.20;58.00
43561;DHT22;32305;46.410;17.394;2023-09-19T11:28:27;19.20;56.00
43561;DHT22;32305;46.410;17.394;2023-09-19T11:30:55;19.20;58.60
43561;DHT22;32305;46.410;17.394;2023-09-19T11:33:23;19.20;57.30
43561;DHT22;32305;46.410;17.394;2023-09-19T11:36:01;19.20;57.60
43561;DHT22;32305;46.410;17.394;2023-09-19T11:46:54;19.20;59.80
43561;DHT22;32305;46.410;17.394;2023-09-19T11:49:26;19.20;58.10
43561;DHT22;32305;46.410;17.394;2023-09-19T11:51:57;19.20;59.20
43561;DHT22;32305;46.410;17.394;2023-09-19T11:54:24;19.20;59.30
43561;DHT22;32305;46.410;17.394;2023-09-19T11:56:55;19.20;59.10
43561;DHT22;32305;46.410;17.394;2023-09-19T11:59:23;19.20;59.30
43561;DHT22;32305;46.410;17.394;2023-09-19T12:01:52;19.20;60.20
43561;DHT22;32305;46.410;17.394;2023-09-19T12:04:33;19.20;59.50
43561;DHT22;32305;46.410;17.394;2023-09-19T12:07:07;19.20;58.60
43561;DHT22;32305;46.410;17.394;2023-09-19T12:09:39;19.20;59.50
43561;DHT22;32305;46.410;17.394;2023-09-19T12:12:10;19.20;59.10
43561;DHT22;32305;46.410;17.394;2023-09-19T12:14:39;19.20;59.30
43561;DHT22;32305;46.410;17.394;2023-09-19T12:17:08;19.20;59.00
43561;DHT22;32305;46.410;17.394;2023-09-19T12:19:35;19.20;58.80
43561;DHT22;32305;46.410;17.394;2023-09-19T12:22:03;19.20;59.70
43561;DHT22;32305;46.410;17.394;2023-09-19T12:24:36;19.30;60.50
43561;DHT22;32305;46.410;17.394;2023-09-19T12:27:07;19.30;60.60
43561;DHT22;32305;46.410;17.394;2023-09-19T12:29:44;19.30;60.80
43561;DHT22;32305;46.410;17.394;2023-09-19T12:32:12;19.30;60.00
43561;DHT22;32305;46.410;17.394;2023-09-19T12:34:39;19.40;60.10
43561;DHT22;32305;46.410;17.394;2023-09-19T12:37:10;19.40;60.00
43561;DHT22;32305;46.410;17.394;2023-09-19T12:39:39;19.40;61.10
43561;DHT22;32305;46.410;17.394;2023-09-19T12:42:11;19.40;59.70
43561;DHT22;32305;46.410;17.394;2023-09-19T12:44:48;19.40;60.80
43561;DHT22;32305;46.410;17.394;2023-09-19T12:47:16;19.40;61.10
43561;DHT22;32305;46.410;17.394;2023-09-19T12:52:36;19.40;60.90
43561;DHT22;32305;46.410;17.394;2023-09-19T12:55:04;19.40;61.70
43561;DHT22;32305;46.410;17.394;2023-09-19T12:57:33;19.40;61.30
43561;DHT22;32305;46.410;17.394;2023-09-19T13:00:02;19.50;61.60
43561;DHT22;32305;46.410;17.394;2023-09-19T13:02:29;19.50;61.10
43561;DHT22;32305;46.410;17.394;2023-09-19T13:04:57;19.50;60.50
43561;DHT22;32305;46.410;17.394;2023-09-19T13:07:40;19.50;60.50
43561;DHT22;32305;46.410;17.394;2023-09-19T13:10:11;19.50;61.10
43561;DHT22;32305;46.410;17.394;2023-09-19T13:12:38;19.50;60.30
43561;DHT22;32305;46.410;17.394;2023-09-19T13:15:09;19.50;60.60
43561;DHT22;32305;46.410;17.394;2023-09-19T13:17:52;19.50;61.10
43561;DHT22;32305;46.410;17.394;2023-09-19T13:20:24;19.50;60.70
43561;DHT22;32305;46.410;17.394;2023-09-19T13:22:54;19.50;61.20
43561;DHT22;32305;46.410;17.394;2023-09-19T13:25:25;19.50;61.40
43561;DHT22;32305;46.410;17.394;2023-09-19T13:27:56;19.50;60.70
43561;DHT22;32305;46.410;17.394;2023-09-19T13:30:24;19.50;60.90
43561;DHT22;32305;46.410;17.394;2023-09-19T13:33:06;19.50;61.30
43561;DHT22;32305;46.410;17.394;2023-09-19T13:35:34;19.50;61.20
43561;DHT22;32305;46.410;17.394;2023-09-19T13:38:01;19.50;61.10
43561;DHT22;32305;46.410;17.394;2023-09-19T13:40:28;19.60;60.50
43561;DHT22;32305;46.410;17.394;2023-09-19T13:42:58;19.60;60.70
43561;DHT22;32305;46.410;17.394;2023-09-19T13:45:25;19.50;60.10
43561;DHT22;32305;46.410;17.394;2023-09-19T13:47:57;19.60;60.90
43561;DHT22;32305;46.410;17.394;2023-09-19T13:50:26;19.50;60.50
43561;DHT22;32305;46.410;17.394;2023-09-19T13:52:56;19.50;59.80
43561;DHT22;32305;46.410;17.394;2023-09-19T13:55:25;19.50;60.50
43561;DHT22;32305;46.410;17.394;2023-09-19T13:57:52;19.60;59.10
43561;DHT22;32305;46.410;17.394;2023-09-19T14:00:22;19.50;60.50
43561;DHT22;32305;46.410;17.394;2023-09-19T14:02:50;19.60;60.10
43561;DHT22;32305;46.410;17.394;2023-09-19T14:05:18;19.60;61.30
43561;DHT22;32305;46.410;17.394;2023-09-19T14:07:47;19.80;70.30
43561;DHT22;32305;46.410;17.394;2023-09-19T14:10:16;20.20;76.80
43561;DHT22;32305;46.410;17.394;2023-09-19T14:12:44;20.50;79.40
43561;DHT22;32305;46.410;17.394;2023-09-19T14:15:12;20.90;80.00
43561;DHT22;32305;46.410;17.394;2023-09-19T14:17:39;21.30;79.80
43561;DHT22;32305;46.410;17.394;2023-09-19T14:20:09;21.60;79.50
43561;DHT22;32305;46.410;17.394;2023-09-19T14:22:37;21.90;79.00
43561;DHT22;32305;46.410;17.394;2023-09-19T14:25:04;22.20;78.80
43561;DHT22;32305;46.410;17.394;2023-09-19T14:27:32;22.50;78.30
43561;DHT22;32305;46.410;17.394;2023-09-19T14:29:59;22.60;77.90
43561;DHT22;32305;46.410;17.394;2023-09-19T14:32:26;22.90;78.00
43561;DHT22;32305;46.410;17.394;2023-09-19T14:34:53;23.00;77.80
43561;DHT22;32305;46.410;17.394;2023-09-19T14:37:20;23.20;77.70
43561;DHT22;32305;46.410;17.394;2023-09-19T14:39:48;23.30;77.30
43561;DHT22;32305;46.410;17.394;2023-09-19T14:42:14;23.40;76.80
43561;DHT22;32305;46.410;17.394;2023-09-19T14:44:44;23.50;76.50
43561;DHT22;32305;46.410;17.394;2023-09-19T14:47:12;23.60;76.20
43561;DHT22;32305;46.410;17.394;2023-09-19T14:49:40;23.70;75.90
43561;DHT22;32305;46.410;17.394;2023-09-19T14:52:07;23.80;75.60
43561;DHT22;32305;46.410;17.394;2023-09-19T14:54:34;23.80;75.30
43561;DHT22;32305;46.410;17.394;2023-09-19T14:57:02;23.90;75.00
43561;DHT22;32305;46.410;17.394;2023-09-19T14:59:32;23.90;74.70
43561;DHT22;32305;46.410;17.394;2023-09-19T15:01:59;24.00;74.60
43561;DHT22;32305;46.410;17.394;2023-09-19T15:04:27;24.00;74.30
43561;DHT22;32305;46.410;17.394;2023-09-19T15:06:54;24.00;74.20
43561;DHT22;32305;46.410;17.394;2023-09-19T15:09:23;24.10;74.20
43561;DHT22;32305;46.410;17.394;2023-09-19T15:11:53;24.10;73.90
43561;DHT22;32305;46.410;17.394;2023-09-19T15:14:20;24.10;73.60
43561;DHT22;32305;46.410;17.394;2023-09-19T15:16:48;24.10;73.60
43561;DHT22;32305;46.410;17.394;2023-09-19T15:19:15;24.10;73.80
43561;DHT22;32305;46.410;17.394;2023-09-19T15:21:44;24.20;73.60
43561;DHT22;32305;46.410;17.394;2023-09-19T15:24:11;24.20;73.60
43561;DHT22;32305;46.410;17.394;2023-09-19T15:26:41;24.20;73.70
43561;DHT22;32305;46.410;17.394;2023-09-19T15:29:10;24.20;73.20
43561;DHT22;32305;46.410;17.394;2023-09-19T15:31:37;24.20;73.40
43561;DHT22;32305;46.410;17.394;2023-09-19T15:34:05;24.30;72.40
43561;DHT22;32305;46.410;17.394;2023-09-19T15:36:34;24.30;72.30
43561;DHT22;32305;46.410;17.394;2023-09-19T15:39:02;24.30;71.20
43561;DHT22;32305;46.410;17.394;2023-09-19T15:41:31;24.30;71.10
43561;DHT22;32305;46.410;17.394;2023-09-19T15:43:58;24.30;70.80
43561;DHT22;32305;46.410;17.394;2023-09-19T15:46:29;24.30;70.70
43561;DHT22;32305;46.410;17.394;2023-09-19T15:49:02;24.30;70.90
43561;DHT22;32305;46.410;17.394;2023-09-19T15:51:29;24.30;71.10
43561;DHT22;32305;46.410;17.394;2023-09-19T15:53:56;24.40;71.20
43561;DHT22;32305;46.410;17.394;2023-09-19T15:56:24;24.50;71.10